createdAt,value
2019-06-01T00:01:07.676Z,12.76
2019-06-01T00:03:38.209Z,12.72
2019-06-01T00:06:07.838Z,12.59
2019-06-01T00:08:40.191Z,12.41
2019-06-01T00:11:09.913Z,12.44
2019-06-01T00:13:39.521Z,12.47
2019-06-01T00:16:10.879Z,12.43
2019-06-01T00:18:43.914Z,12.54
2019-06-01T00:21:13.524Z,12.50
2019-06-01T00:23:42.960Z,12.63
2019-06-01T00:26:12.395Z,12.50
2019-06-01T00:28:43.726Z,12.47
2019-06-01T00:31:13.039Z,12.29
2019-06-01T00:33:43.324Z,12.37
2019-06-01T00:36:12.841Z,12.29
2019-06-01T00:38:43.818Z,12.38
2019-06-01T00:41:13.335Z,12.43
2019-06-01T00:43:44.118Z,12.42
2019-06-01T00:46:13.682Z,12.23
2019-06-01T00:48:43.770Z,12.15
2019-06-01T00:51:16.170Z,12.10
2019-06-01T00:53:45.598Z,12.10
2019-06-01T00:56:15.129Z,12.28
2019-06-01T00:58:47.762Z,12.23
2019-06-01T01:01:19.954Z,12.08
2019-06-01T01:03:50.226Z,12.08
2019-06-01T01:06:19.661Z,12.19
2019-06-01T01:08:49.125Z,12.09
2019-06-01T01:11:18.609Z,12.20
2019-06-01T01:13:51.311Z,12.11
2019-06-01T01:16:20.726Z,12.11
2019-06-01T01:18:50.170Z,12.03
2019-06-01T01:21:19.663Z,11.88
2019-06-01T01:23:50.232Z,11.93
2019-06-01T01:26:19.727Z,12.01
2019-06-01T01:28:49.207Z,11.82
2019-06-01T01:31:18.790Z,11.76
2019-06-01T01:33:49.379Z,11.88
2019-06-01T01:36:18.823Z,11.74
2019-06-01T01:38:48.405Z,11.70
2019-06-01T01:41:17.869Z,11.62
2019-06-01T01:43:48.433Z,11.66
2019-06-01T01:46:17.929Z,11.64
2019-06-01T01:48:47.500Z,11.62
2019-06-01T01:51:17.123Z,11.52
2019-06-01T01:53:46.631Z,11.52
2019-06-01T01:56:16.226Z,11.60
2019-06-01T01:58:45.773Z,11.61
2019-06-01T02:01:22.301Z,11.61
2019-06-01T02:03:46.550Z,11.59
2019-06-01T02:06:16.287Z,11.49
2019-06-01T02:08:45.745Z,11.59
2019-06-01T02:11:15.508Z,11.67
2019-06-01T02:13:47.905Z,11.79
2019-06-01T02:16:17.289Z,11.79
2019-06-01T02:18:46.794Z,11.40
2019-06-01T02:21:16.366Z,11.40
2019-06-01T02:23:46.178Z,11.28
2019-06-01T02:26:15.619Z,11.27
2019-06-01T02:28:45.308Z,11.27
2019-06-01T02:31:14.788Z,11.36
2019-06-01T02:33:44.372Z,11.41
2019-06-01T02:36:13.760Z,11.41
2019-06-01T02:38:43.419Z,11.38
2019-06-01T02:41:12.982Z,11.37
2019-06-01T02:43:42.413Z,11.37
2019-06-01T02:46:11.830Z,11.46
2019-06-01T02:48:41.777Z,11.24
2019-06-01T02:51:11.208Z,11.07
2019-06-01T02:53:40.699Z,11.04
2019-06-01T02:56:10.160Z,11.04
2019-06-01T02:58:39.664Z,11.08
2019-06-01T03:01:37.822Z,10.98
2019-06-01T03:04:09.373Z,11.03
2019-06-01T03:06:41.366Z,11.18
2019-06-01T03:09:11.642Z,11.18
2019-06-01T03:11:42.104Z,11.10
2019-06-01T03:14:12.988Z,11.07
2019-06-01T03:16:44.084Z,11.07
2019-06-01T03:19:16.708Z,10.91
2019-06-01T03:21:49.654Z,10.78
2019-06-01T03:24:24.742Z,10.78
2019-06-01T03:26:55.669Z,10.69
2019-06-01T03:29:28.313Z,10.61
2019-06-01T03:32:17.682Z,10.74
2019-06-01T03:34:28.951Z,10.71
2019-06-01T03:36:58.585Z,10.71
2019-06-01T03:39:28.874Z,10.76
2019-06-01T03:41:58.385Z,10.68
2019-06-01T03:44:27.848Z,10.68
2019-06-01T03:46:57.519Z,10.78
2019-06-01T03:49:27.026Z,10.78
2019-06-01T03:51:56.735Z,10.92
2019-06-01T03:54:26.362Z,10.91
2019-06-01T03:56:55.882Z,10.90
2019-06-01T03:59:25.355Z,10.94
2019-06-01T04:01:54.852Z,10.94
2019-06-01T04:04:24.310Z,11.08
2019-06-01T04:06:53.881Z,11.08
2019-06-01T04:09:23.416Z,11.29
2019-06-01T04:11:53.205Z,11.29
2019-06-01T04:14:22.631Z,11.38
2019-06-01T04:16:52.131Z,11.38
2019-06-01T04:19:21.637Z,11.62
2019-06-01T04:21:51.044Z,11.62
2019-06-01T04:24:20.591Z,11.87
2019-06-01T04:26:50.227Z,11.87
2019-06-01T04:29:22.221Z,12.00
2019-06-01T04:31:51.671Z,12.13
2019-06-01T04:34:21.085Z,12.27
2019-06-01T04:36:50.603Z,12.39
2019-06-01T04:39:20.091Z,12.57
2019-06-01T04:41:49.558Z,12.57
2019-06-01T04:44:19.031Z,12.39
2019-06-01T04:46:48.755Z,12.39
2019-06-01T04:49:18.211Z,12.47
2019-06-01T04:51:47.844Z,12.89
2019-06-01T04:54:17.259Z,12.89
2019-06-01T04:56:46.835Z,12.75
2019-06-01T04:59:16.365Z,12.75
2019-06-01T05:01:45.887Z,12.71
2019-06-01T05:04:15.596Z,12.80
2019-06-01T05:06:45.059Z,12.84
2019-06-01T05:09:15.752Z,12.92
2019-06-01T05:11:51.444Z,13.01
2019-06-01T05:14:20.960Z,13.13
2019-06-01T05:16:51.720Z,13.19
2019-06-01T05:19:21.326Z,13.39
2019-06-01T05:22:30.713Z,13.53
2019-06-01T05:25:00.095Z,13.66
2019-06-01T05:27:29.493Z,13.97
2019-06-01T05:29:59.026Z,14.00
2019-06-01T05:32:28.538Z,14.18
2019-06-01T05:34:58.004Z,14.36
2019-06-01T05:37:27.464Z,14.54
2019-06-01T05:39:56.994Z,14.70
2019-06-01T05:42:26.727Z,14.89
2019-06-01T05:44:56.194Z,15.03
2019-06-01T05:47:25.658Z,15.32
2019-06-01T05:49:55.155Z,15.34
2019-06-01T05:52:24.580Z,15.52
2019-06-01T05:54:54.051Z,15.59
2019-06-01T05:57:23.544Z,15.77
2019-06-01T05:59:53.269Z,15.52
2019-06-01T06:02:22.793Z,15.75
2019-06-01T06:04:54.073Z,15.91
2019-06-01T06:07:23.390Z,16.03
2019-06-01T06:09:52.911Z,16.16
2019-06-01T06:12:22.450Z,16.33
2019-06-01T06:14:51.969Z,16.29
2019-06-01T06:17:24.090Z,16.33
2019-06-01T06:19:52.981Z,16.32
2019-06-01T06:22:22.486Z,16.51
2019-06-01T06:24:51.945Z,16.72
2019-06-01T06:27:21.376Z,16.74
2019-06-01T06:29:50.938Z,16.99
2019-06-01T06:32:21.377Z,17.11
2019-06-01T06:34:51.047Z,16.74
2019-06-01T06:37:21.774Z,17.09
2019-06-01T06:39:51.304Z,16.96
2019-06-01T06:42:20.791Z,17.24
2019-06-01T06:44:50.234Z,17.44
2019-06-01T06:47:20.839Z,17.68
2019-06-01T06:49:50.421Z,17.76
2019-06-01T06:52:19.877Z,17.89
2019-06-01T06:54:49.390Z,18.15
2019-06-01T06:57:20.078Z,18.45
2019-06-01T06:59:49.593Z,19.08
2019-06-01T07:02:19.056Z,19.16
2019-06-01T07:04:48.467Z,19.43
2019-06-01T07:07:18.018Z,19.82
2019-06-01T07:09:47.503Z,19.29
2019-06-01T07:12:17.055Z,19.95
2019-06-01T07:14:46.642Z,20.12
2019-06-01T07:17:16.149Z,20.00
2019-06-01T07:19:46.659Z,20.08
2019-06-01T07:22:17.111Z,20.46
2019-06-01T07:24:46.772Z,19.98
2019-06-01T07:27:16.274Z,20.67
2019-06-01T07:29:45.754Z,20.99
2019-06-01T07:32:15.366Z,20.74
2019-06-01T07:34:44.888Z,21.34
2019-06-01T07:37:14.426Z,21.67
2019-06-01T07:39:43.867Z,22.00
2019-06-01T07:42:13.443Z,23.75
2019-06-01T07:44:43.088Z,24.86
2019-06-01T07:47:15.606Z,25.19
2019-06-01T07:49:45.253Z,25.51
2019-06-01T07:52:14.744Z,26.80
2019-06-01T07:54:44.190Z,26.40
2019-06-01T07:57:13.951Z,27.83
2019-06-01T07:59:43.234Z,29.06
2019-06-01T08:02:12.865Z,28.36
2019-06-01T08:04:53.529Z,28.33
2019-06-01T08:07:13.360Z,30.11
2019-06-01T08:09:42.709Z,31.17
2019-06-01T08:12:12.047Z,31.67
2019-06-01T08:14:41.473Z,30.51
2019-06-01T08:17:10.827Z,30.11
2019-06-01T08:19:41.470Z,31.31
2019-06-01T08:22:10.870Z,30.16
2019-06-01T08:24:44.607Z,31.57
2019-06-01T08:27:17.183Z,29.86
2019-06-01T08:29:46.560Z,29.70
2019-06-01T08:32:15.967Z,31.48
2019-06-01T08:34:46.639Z,32.79
2019-06-01T08:37:16.294Z,33.61
2019-06-01T08:39:45.654Z,34.70
2019-06-01T08:42:15.036Z,34.00
2019-06-01T08:44:44.435Z,33.54
2019-06-01T08:47:13.756Z,34.03
2019-06-01T08:49:43.137Z,34.38
2019-06-01T08:52:12.471Z,33.93
2019-06-01T08:54:42.102Z,34.38
2019-06-01T08:57:11.460Z,34.71
2019-06-01T08:59:40.997Z,35.68
2019-06-01T09:02:10.486Z,35.63
2019-06-01T09:04:40.100Z,33.98
2019-06-01T09:07:09.443Z,35.25
2019-06-01T09:09:38.825Z,34.64
2019-06-01T09:12:08.176Z,36.23
2019-06-01T09:14:37.519Z,34.71
2019-06-01T09:17:06.977Z,34.95
2019-06-01T09:19:36.515Z,35.68
2019-06-01T09:22:06.012Z,35.08
2019-06-01T09:24:36.261Z,35.69
2019-06-01T09:27:06.349Z,35.32
2019-06-01T09:29:36.170Z,36.27
2019-06-01T09:32:10.332Z,37.60
2019-06-01T09:34:36.555Z,36.84
2019-06-01T09:37:06.179Z,36.01
2019-06-01T09:39:35.442Z,36.42
2019-06-01T09:42:04.714Z,37.76
2019-06-01T09:44:35.177Z,38.83
2019-06-01T09:47:04.532Z,39.67
2019-06-01T09:49:34.142Z,39.00
2019-06-01T09:52:03.515Z,37.90
2019-06-01T09:54:34.496Z,37.36
2019-06-01T09:57:04.318Z,37.20
2019-06-01T09:59:34.092Z,38.34
2019-06-01T10:02:03.496Z,38.23
2019-06-01T10:04:32.872Z,38.55
2019-06-01T10:07:02.122Z,38.85
2019-06-01T10:09:31.577Z,38.38
2019-06-01T10:12:00.850Z,38.91
2019-06-01T10:14:30.180Z,37.18
2019-06-01T10:16:59.447Z,39.24
2019-06-01T10:19:28.671Z,37.64
2019-06-01T10:21:58.032Z,36.93
2019-06-01T10:24:27.494Z,37.43
2019-06-01T10:26:57.093Z,38.47
2019-06-01T10:29:26.363Z,38.61
2019-06-01T10:31:55.689Z,38.51
2019-06-01T10:34:25.048Z,36.63
2019-06-01T10:36:54.344Z,38.38
2019-06-01T10:39:23.753Z,37.50
2019-06-01T10:41:53.173Z,38.19
2019-06-01T10:44:22.435Z,37.21
2019-06-01T10:46:51.692Z,38.22
2019-06-01T10:49:20.976Z,38.03
2019-06-01T10:51:50.378Z,38.52
2019-06-01T10:54:19.625Z,39.11
2019-06-01T10:56:49.091Z,39.02
2019-06-01T10:59:18.382Z,38.85
2019-06-01T11:01:47.685Z,39.61
2019-06-01T11:04:17.067Z,39.48
2019-06-01T11:06:48.848Z,40.04
2019-06-01T11:09:19.317Z,40.54
2019-06-01T11:11:52.670Z,40.93
2019-06-01T11:14:22.335Z,40.99
2019-06-01T11:16:56.234Z,40.33
2019-06-01T11:19:22.730Z,39.43
2019-06-01T11:21:52.145Z,40.30
2019-06-01T11:24:21.551Z,40.50
2019-06-01T11:26:50.951Z,41.13
2019-06-01T11:29:20.277Z,41.86
2019-06-01T11:31:49.480Z,42.08
2019-06-01T11:34:18.753Z,40.88
2019-06-01T11:37:04.556Z,40.36
2019-06-01T11:39:19.185Z,38.51
2019-06-01T11:41:48.466Z,38.85
2019-06-01T11:44:17.803Z,38.38
2019-06-01T11:46:47.186Z,38.24
2019-06-01T11:49:20.372Z,37.89
2019-06-01T11:51:47.446Z,39.08
2019-06-01T11:54:16.710Z,40.52
2019-06-01T11:56:45.991Z,39.96
2019-06-01T11:59:15.286Z,40.01
2019-06-01T12:01:46.047Z,40.78
2019-06-01T12:04:15.448Z,39.45
2019-06-01T12:06:46.175Z,40.22
2019-06-01T12:09:16.996Z,42.08
2019-06-01T12:11:46.520Z,40.64
2019-06-01T12:14:15.912Z,41.50
2019-06-01T12:16:45.176Z,41.08
2019-06-01T12:19:14.457Z,40.85
2019-06-01T12:21:45.225Z,41.35
2019-06-01T12:24:14.522Z,41.51
2019-06-01T12:26:43.904Z,41.48
2019-06-01T12:29:13.192Z,40.24
2019-06-01T12:31:43.594Z,42.39
2019-06-01T12:34:16.023Z,42.86
2019-06-01T12:36:46.434Z,41.24
2019-06-01T12:39:15.850Z,41.40
2019-06-01T12:41:45.776Z,38.35
2019-06-01T12:44:17.738Z,40.37
2019-06-01T12:46:47.314Z,41.08
2019-06-01T12:49:16.754Z,42.04
2019-06-01T12:51:46.940Z,42.75
2019-06-01T12:54:16.289Z,41.49
2019-06-01T12:56:47.584Z,40.95
2019-06-01T12:59:16.596Z,40.64
2019-06-01T13:01:47.133Z,41.58
2019-06-01T13:04:16.557Z,40.98
2019-06-01T13:06:50.346Z,40.09
2019-06-01T13:09:17.085Z,38.58
2019-06-01T13:11:47.336Z,40.03
2019-06-01T13:14:16.649Z,39.59
2019-06-01T13:16:55.771Z,40.85
2019-06-01T13:19:18.085Z,41.94
2019-06-01T13:21:47.524Z,41.50
2019-06-01T13:24:16.810Z,40.93
2019-06-01T13:26:46.115Z,40.40
2019-06-01T13:29:15.529Z,40.66
2019-06-01T13:31:46.051Z,40.28
2019-06-01T13:34:15.475Z,38.89
2019-06-01T13:36:44.858Z,38.77
2019-06-01T13:39:14.555Z,40.15
2019-06-01T13:41:45.052Z,40.36
2019-06-01T13:44:14.672Z,40.52
2019-06-01T13:46:45.191Z,39.47
2019-06-01T13:49:14.635Z,40.05
2019-06-01T13:51:44.154Z,41.01
2019-06-01T13:54:13.514Z,40.79
2019-06-01T13:56:42.816Z,41.30
2019-06-01T13:59:12.107Z,41.62
2019-06-01T14:01:41.492Z,41.02
2019-06-01T14:04:10.861Z,39.87
2019-06-01T14:06:40.121Z,41.84
2019-06-01T14:09:09.530Z,40.40
2019-06-01T14:11:38.775Z,38.72
2019-06-01T14:14:08.213Z,39.38
2019-06-01T14:16:37.493Z,39.62
2019-06-01T14:19:07.215Z,39.00
2019-06-01T14:21:36.459Z,38.75
2019-06-01T14:24:05.868Z,38.23
2019-06-01T14:26:35.157Z,39.17
2019-06-01T14:29:04.628Z,41.15
2019-06-01T14:31:34.036Z,41.81
2019-06-01T14:34:03.556Z,40.05
2019-06-01T14:36:32.801Z,39.13
2019-06-01T14:39:02.064Z,38.77
2019-06-01T14:41:31.359Z,37.96
2019-06-01T14:44:01.007Z,38.92
2019-06-01T14:46:30.384Z,37.68
2019-06-01T14:48:59.796Z,37.85
2019-06-01T14:51:29.042Z,39.04
2019-06-01T14:53:58.352Z,38.67
2019-06-01T14:56:27.659Z,39.43
2019-06-01T14:59:02.136Z,40.04
2019-06-01T15:01:33.406Z,39.50
2019-06-01T15:04:04.917Z,39.73
2019-06-01T15:06:36.616Z,38.58
2019-06-01T15:09:18.657Z,39.46
2019-06-01T15:11:39.222Z,38.56
2019-06-01T15:14:08.548Z,37.21
2019-06-01T15:16:37.917Z,38.02
2019-06-01T15:19:07.219Z,38.65
2019-06-01T15:21:36.592Z,39.29
2019-06-01T15:24:06.684Z,39.89
2019-06-01T15:26:38.161Z,40.01
2019-06-01T15:29:10.445Z,39.23
2019-06-01T15:31:39.742Z,38.71
2019-06-01T15:34:09.196Z,38.62
2019-06-01T15:36:38.758Z,37.48
2019-06-01T15:39:23.513Z,37.51
2019-06-01T15:41:40.133Z,36.88
2019-06-01T15:44:09.376Z,37.09
2019-06-01T15:46:38.923Z,36.52
2019-06-01T15:49:08.188Z,34.85
2019-06-01T15:51:37.478Z,35.53
2019-06-01T15:54:07.956Z,36.42
2019-06-01T15:56:37.310Z,35.32
2019-06-01T15:59:06.605Z,36.18
2019-06-01T16:01:36.029Z,37.65
2019-06-01T16:04:05.623Z,37.78
2019-06-01T16:06:34.955Z,38.48
2019-06-01T16:09:05.045Z,37.18
2019-06-01T16:11:34.343Z,37.93
2019-06-01T16:14:04.002Z,38.52
2019-06-01T16:16:33.410Z,38.82
2019-06-01T16:19:07.492Z,38.17
2019-06-01T16:21:34.130Z,37.70
2019-06-01T16:24:04.470Z,37.32
2019-06-01T16:26:33.698Z,38.65
2019-06-01T16:29:03.499Z,38.14
2019-06-01T16:31:33.982Z,36.75
2019-06-01T16:34:03.252Z,37.79
2019-06-01T16:36:32.646Z,37.91
2019-06-01T16:39:05.221Z,38.02
2019-06-01T16:41:32.928Z,38.27
2019-06-01T16:44:03.769Z,38.53
2019-06-01T16:46:33.049Z,38.67
2019-06-01T16:49:03.642Z,37.25
2019-06-01T16:51:54.441Z,36.96
2019-06-01T16:54:23.960Z,35.36
2019-06-01T16:56:53.352Z,33.08
2019-06-01T16:59:22.893Z,30.62
2019-06-01T17:01:52.598Z,29.42
2019-06-01T17:04:21.945Z,28.58
2019-06-01T17:06:51.181Z,28.24
2019-06-01T17:09:20.447Z,27.93
2019-06-01T17:11:49.888Z,27.72
2019-06-01T17:14:19.341Z,27.63
2019-06-01T17:16:48.849Z,27.57
2019-06-01T17:19:18.121Z,28.05
2019-06-01T17:21:47.425Z,28.70
2019-06-01T17:24:16.688Z,28.67
2019-06-01T17:26:46.195Z,28.69
2019-06-01T17:29:15.628Z,28.60
2019-06-01T17:31:53.821Z,27.92
2019-06-01T17:34:16.266Z,27.40
2019-06-01T17:36:45.476Z,26.80
2019-06-01T17:39:14.842Z,26.56
2019-06-01T17:41:44.389Z,26.45
2019-06-01T17:44:13.729Z,26.30
2019-06-01T17:46:53.416Z,26.18
2019-06-01T17:49:15.520Z,25.96
2019-06-01T17:51:44.746Z,25.81
2019-06-01T17:54:14.060Z,25.79
2019-06-01T17:56:43.418Z,25.67
2019-06-01T17:59:12.786Z,25.64
2019-06-01T18:01:42.747Z,25.51
2019-06-01T18:04:12.210Z,25.37
2019-06-01T18:06:41.727Z,25.28
2019-06-01T18:09:12.154Z,25.16
2019-06-01T18:11:41.508Z,25.02
2019-06-01T18:14:12.391Z,24.91
2019-06-01T18:16:41.840Z,24.80
2019-06-01T18:19:12.260Z,24.65
2019-06-01T18:21:42.029Z,24.23
2019-06-01T18:24:12.616Z,24.08
2019-06-01T18:26:41.960Z,23.84
2019-06-01T18:29:11.350Z,23.67
2019-06-01T18:31:40.669Z,23.53
2019-06-01T18:34:09.902Z,23.28
2019-06-01T18:36:39.209Z,22.97
2019-06-01T18:39:09.545Z,22.76
2019-06-01T18:41:39.176Z,22.65
2019-06-01T18:44:09.703Z,22.47
2019-06-01T18:46:39.392Z,22.25
2019-06-01T18:49:09.877Z,22.08
2019-06-01T18:51:39.545Z,21.94
2019-06-01T18:54:08.964Z,21.66
2019-06-01T18:56:38.470Z,21.46
2019-06-01T18:59:08.545Z,21.23
2019-06-01T19:01:37.856Z,21.00
2019-06-01T19:04:07.515Z,20.82
2019-06-01T19:06:36.819Z,20.54
2019-06-01T19:09:09.548Z,20.39
2019-06-01T19:11:38.918Z,20.27
2019-06-01T19:14:08.210Z,20.15
2019-06-01T19:16:37.605Z,19.94
2019-06-01T19:19:08.244Z,19.80
2019-06-01T19:21:37.628Z,19.64
2019-06-01T19:24:07.058Z,19.51
2019-06-01T19:26:36.669Z,19.49
2019-06-01T19:29:06.740Z,19.45
2019-06-01T19:31:36.367Z,19.34
2019-06-01T19:34:06.881Z,19.47
2019-06-01T19:36:37.216Z,19.49
2019-06-01T19:39:09.077Z,19.34
2019-06-01T19:41:44.663Z,19.42
2019-06-01T19:44:09.597Z,19.47
2019-06-01T19:46:39.003Z,19.53
2019-06-01T19:49:08.366Z,19.60
2019-06-01T19:51:37.665Z,19.87
2019-06-01T19:54:06.982Z,19.88
2019-06-01T19:56:36.289Z,19.96
2019-06-01T19:59:05.784Z,20.00
2019-06-01T20:01:35.163Z,20.02
2019-06-01T20:04:04.776Z,20.06
2019-06-01T20:06:34.232Z,20.04
2019-06-01T20:09:03.668Z,20.08
2019-06-01T20:11:33.032Z,20.31
2019-06-01T20:14:02.404Z,20.32
2019-06-01T20:16:31.720Z,20.33
2019-06-01T20:19:01.078Z,20.37
2019-06-01T20:21:30.345Z,20.25
2019-06-01T20:23:59.726Z,20.11
2019-06-01T20:26:40.388Z,19.78
2019-06-01T20:29:00.154Z,19.49
2019-06-01T20:31:29.474Z,19.28
2019-06-01T20:33:58.790Z,19.11
2019-06-01T20:36:28.117Z,18.90
2019-06-01T20:38:57.520Z,18.69
2019-06-01T20:41:26.967Z,18.48
2019-06-01T20:43:56.483Z,18.22
2019-06-01T20:46:25.961Z,18.14
2019-06-01T20:48:55.328Z,17.96
2019-06-01T20:51:27.694Z,17.90
2019-06-01T20:53:55.816Z,17.84
2019-06-01T20:56:25.416Z,17.88
2019-06-01T20:58:54.860Z,18.09
2019-06-01T21:01:24.490Z,18.01
2019-06-01T21:03:53.909Z,17.89
2019-06-01T21:06:24.010Z,17.75
2019-06-01T21:08:53.286Z,17.79
2019-06-01T21:11:22.653Z,17.82
2019-06-01T21:13:52.062Z,17.84
2019-06-01T21:16:23.086Z,17.62
2019-06-01T21:18:52.391Z,17.61
2019-06-01T21:21:22.528Z,17.70
2019-06-01T21:23:52.027Z,17.68
2019-06-01T21:26:21.425Z,17.49
2019-06-01T21:28:50.697Z,17.40
2019-06-01T21:31:21.151Z,17.31
2019-06-01T21:33:50.443Z,17.21
2019-06-01T21:36:19.766Z,17.05
2019-06-01T21:38:49.091Z,16.93
2019-06-01T21:41:19.458Z,17.10
2019-06-01T21:43:48.741Z,16.70
2019-06-01T21:46:18.146Z,16.73
2019-06-01T21:48:47.575Z,16.70
2019-06-01T21:51:17.746Z,16.73
2019-06-01T21:53:47.043Z,16.61
2019-06-01T21:56:19.877Z,16.54
2019-06-01T21:58:47.494Z,16.36
2019-06-01T22:01:16.762Z,16.34
2019-06-01T22:04:27.134Z,16.29
2019-06-01T22:06:56.741Z,16.31
2019-06-01T22:09:27.415Z,16.50
2019-06-01T22:11:56.944Z,16.33
2019-06-01T22:14:27.662Z,16.18
2019-06-01T22:16:57.181Z,16.18
2019-06-01T22:19:26.605Z,16.17
2019-06-01T22:21:56.045Z,16.08
2019-06-01T22:24:25.966Z,16.02
2019-06-01T22:26:55.448Z,16.09
2019-06-01T22:29:24.818Z,15.75
2019-06-01T22:31:54.228Z,16.02
2019-06-01T22:34:27.017Z,15.93
2019-06-01T22:36:56.419Z,15.80
2019-06-01T22:39:26.962Z,15.71
2019-06-01T22:41:56.413Z,15.55
2019-06-01T22:44:26.220Z,15.50
2019-06-01T22:46:55.664Z,15.44
2019-06-01T22:49:25.092Z,15.53
2019-06-01T22:51:54.541Z,15.62
2019-06-01T22:54:25.126Z,15.65
2019-06-01T22:56:54.646Z,15.64
2019-06-01T22:59:24.445Z,15.72
2019-06-01T23:01:54.237Z,15.71
2019-06-01T23:04:25.034Z,15.59
2019-06-01T23:06:54.482Z,15.55
2019-06-01T23:09:25.556Z,15.70
2019-06-01T23:11:55.086Z,15.83
2019-06-01T23:14:25.266Z,15.77
2019-06-01T23:16:54.785Z,15.73
2019-06-01T23:19:25.685Z,15.69
2019-06-01T23:21:55.127Z,15.45
2019-06-01T23:24:24.569Z,15.49
2019-06-01T23:26:56.714Z,15.67
2019-06-01T23:29:26.241Z,15.58
2019-06-01T23:31:55.617Z,15.56
2019-06-01T23:34:26.555Z,15.44
2019-06-01T23:36:56.128Z,15.38
2019-06-01T23:39:26.632Z,15.26
2019-06-01T23:41:57.386Z,15.12
2019-06-01T23:44:29.431Z,14.94
2019-06-01T23:46:58.084Z,14.81
2019-06-01T23:49:27.678Z,14.84
2019-06-01T23:51:57.176Z,14.77
2019-06-01T23:54:27.628Z,14.79
2019-06-01T23:56:57.218Z,14.77
2019-06-01T23:59:27.923Z,14.63
